sensor_id;sensor_type;location;lat;lon;timestamp;temperature;humidity
38788;DHT22;24536;45.488;12.238;2023-07-16T00:00:52;29.40;88.20
38788;DHT22;24536;45.488;12.238;2023-07-16T00:03:18;29.40;88.30
38788;DHT22;24536;45.488;12.238;2023-07-16T00:05:43;29.40;88.40
38788;DHT22;24536;45.488;12.238;2023-07-16T00:08:09;29.40;88.50
38788;DHT22;24536;45.488;12.238;2023-07-16T00:10:36;29.40;88.60
38788;DHT22;24536;45.488;12.238;2023-07-16T00:13:04;29.30;88.80
38788;DHT22;24536;45.488;12.238;2023-07-16T00:15:30;29.30;88.90
38788;DHT22;24536;45.488;12.238;2023-07-16T00:17:56;29.30;89.10
38788;DHT22;24536;45.488;12.238;2023-07-16T00:20:22;29.20;89.20
38788;DHT22;24536;45.488;12.238;2023-07-16T00:22:51;29.20;89.20
38788;DHT22;24536;45.488;12.238;2023-07-16T00:25:17;29.20;89.40
38788;DHT22;24536;45.488;12.238;2023-07-16T00:27:43;29.20;89.40
38788;DHT22;24536;45.488;12.238;2023-07-16T00:30:09;29.10;89.30
38788;DHT22;24536;45.488;12.238;2023-07-16T00:32:34;29.20;89.40
38788;DHT22;24536;45.488;12.238;2023-07-16T00:35:03;29.10;89.40
38788;DHT22;24536;45.488;12.238;2023-07-16T00:37:33;29.10;89.60
38788;DHT22;24536;45.488;12.238;2023-07-16T00:39:59;29.00;89.70
38788;DHT22;24536;45.488;12.238;2023-07-16T00:42:25;29.00;90.20
38788;DHT22;24536;45.488;12.238;2023-07-16T00:44:50;29.00;90.00
38788;DHT22;24536;45.488;12.238;2023-07-16T00:47:16;29.00;90.10
38788;DHT22;24536;45.488;12.238;2023-07-16T00:49:42;29.00;90.10
38788;DHT22;24536;45.488;12.238;2023-07-16T00:52:13;29.00;90.20
38788;DHT22;24536;45.488;12.238;2023-07-16T00:54:39;29.00;90.20
38788;DHT22;24536;45.488;12.238;2023-07-16T00:57:06;29.00;90.30
38788;DHT22;24536;45.488;12.238;2023-07-16T00:59:32;29.00;90.20
38788;DHT22;24536;45.488;12.238;2023-07-16T01:01:58;29.00;90.30
38788;DHT22;24536;45.488;12.238;2023-07-16T01:04:23;29.00;90.30
38788;DHT22;24536;45.488;12.238;2023-07-16T01:06:52;29.00;90.30
38788;DHT22;24536;45.488;12.238;2023-07-16T01:09:20;29.00;90.40
38788;DHT22;24536;45.488;12.238;2023-07-16T01:11:47;28.90;90.50
38788;DHT22;24536;45.488;12.238;2023-07-16T01:14:16;28.90;90.50
38788;DHT22;24536;45.488;12.238;2023-07-16T01:16:42;28.90;90.60
38788;DHT22;24536;45.488;12.238;2023-07-16T01:19:08;29.00;90.70
38788;DHT22;24536;45.488;12.238;2023-07-16T01:30:23;28.80;91.00
38788;DHT22;24536;45.488;12.238;2023-07-16T01:32:51;28.80;91.00
38788;DHT22;24536;45.488;12.238;2023-07-16T01:35:18;28.80;91.10
38788;DHT22;24536;45.488;12.238;2023-07-16T01:37:44;28.80;91.10
38788;DHT22;24536;45.488;12.238;2023-07-16T01:40:10;28.80;91.10
38788;DHT22;24536;45.488;12.238;2023-07-16T01:42:36;28.80;91.10
38788;DHT22;24536;45.488;12.238;2023-07-16T01:45:03;28.80;91.10
38788;DHT22;24536;45.488;12.238;2023-07-16T01:50:13;28.80;91.10
38788;DHT22;24536;45.488;12.238;2023-07-16T01:52:39;28.70;91.10
38788;DHT22;24536;45.488;12.238;2023-07-16T01:55:05;28.70;91.20
38788;DHT22;24536;45.488;12.238;2023-07-16T01:57:30;28.70;91.20
38788;DHT22;24536;45.488;12.238;2023-07-16T01:59:56;28.70;91.30
38788;DHT22;24536;45.488;12.238;2023-07-16T02:02:22;28.70;91.20
38788;DHT22;24536;45.488;12.238;2023-07-16T02:04:47;28.70;91.20
38788;DHT22;24536;45.488;12.238;2023-07-16T02:07:13;28.60;91.10
38788;DHT22;24536;45.488;12.238;2023-07-16T02:09:39;28.60;91.20
38788;DHT22;24536;45.488;12.238;2023-07-16T02:12:06;28.60;91.20
38788;DHT22;24536;45.488;12.238;2023-07-16T02:14:32;28.60;91.20
38788;DHT22;24536;45.488;12.238;2023-07-16T02:16:57;28.60;91.20
38788;DHT22;24536;45.488;12.238;2023-07-16T02:19:23;28.60;91.20
38788;DHT22;24536;45.488;12.238;2023-07-16T02:21:50;28.50;91.20
38788;DHT22;24536;45.488;12.238;2023-07-16T02:24:16;28.50;91.30
38788;DHT22;24536;45.488;12.238;2023-07-16T02:26:42;28.50;91.40
38788;DHT22;24536;45.488;12.238;2023-07-16T02:29:08;28.50;91.40
38788;DHT22;24536;45.488;12.238;2023-07-16T02:31:36;28.50;91.60
38788;DHT22;24536;45.488;12.238;2023-07-16T02:34:02;28.50;91.60
38788;DHT22;24536;45.488;12.238;2023-07-16T02:36:27;28.50;91.60
38788;DHT22;24536;45.488;12.238;2023-07-16T02:38:53;28.50;91.70
38788;DHT22;24536;45.488;12.238;2023-07-16T02:41:18;28.50;91.70
38788;DHT22;24536;45.488;12.238;2023-07-16T02:43:45;28.50;91.80
38788;DHT22;24536;45.488;12.238;2023-07-16T02:46:12;28.50;91.80
38788;DHT22;24536;45.488;12.238;2023-07-16T02:48:38;28.50;92.00
38788;DHT22;24536;45.488;12.238;2023-07-16T02:51:03;28.50;92.10
38788;DHT22;24536;45.488;12.238;2023-07-16T02:53:29;28.50;92.20
38788;DHT22;24536;45.488;12.238;2023-07-16T02:55:55;28.50;92.30
38788;DHT22;24536;45.488;12.238;2023-07-16T02:58:20;28.50;92.40
38788;DHT22;24536;45.488;12.238;2023-07-16T03:00:46;28.40;92.40
38788;DHT22;24536;45.488;12.238;2023-07-16T03:03:12;28.50;92.50
38788;DHT22;24536;45.488;12.238;2023-07-16T03:05:37;28.50;92.60
38788;DHT22;24536;45.488;12.238;2023-07-16T03:08:03;28.50;92.70
38788;DHT22;24536;45.488;12.238;2023-07-16T03:10:29;28.40;92.70
38788;DHT22;24536;45.488;12.238;2023-07-16T03:12:55;28.40;92.80
38788;DHT22;24536;45.488;12.238;2023-07-16T03:15:21;28.40;92.90
38788;DHT22;24536;45.488;12.238;2023-07-16T03:17:46;28.50;93.00
38788;DHT22;24536;45.488;12.238;2023-07-16T03:20:12;28.40;92.90
38788;DHT22;24536;45.488;12.238;2023-07-16T03:22:38;28.50;93.00
38788;DHT22;24536;45.488;12.238;2023-07-16T03:25:04;28.50;93.00
38788;DHT22;24536;45.488;12.238;2023-07-16T03:27:30;28.40;93.00
38788;DHT22;24536;45.488;12.238;2023-07-16T03:29:56;28.40;93.00
38788;DHT22;24536;45.488;12.238;2023-07-16T03:32:22;28.40;93.00
38788;DHT22;24536;45.488;12.238;2023-07-16T03:34:48;28.40;93.10
38788;DHT22;24536;45.488;12.238;2023-07-16T03:37:13;28.40;93.10
38788;DHT22;24536;45.488;12.238;2023-07-16T03:39:39;28.40;93.10
38788;DHT22;24536;45.488;12.238;2023-07-16T03:42:05;28.30;93.20
38788;DHT22;24536;45.488;12.238;2023-07-16T03:44:30;28.30;93.20
38788;DHT22;24536;45.488;12.238;2023-07-16T03:46:56;28.30;93.20
38788;DHT22;24536;45.488;12.238;2023-07-16T03:49:22;28.30;93.00
38788;DHT22;24536;45.488;12.238;2023-07-16T03:51:47;28.30;93.10
38788;DHT22;24536;45.488;12.238;2023-07-16T03:54:13;28.30;92.90
38788;DHT22;24536;45.488;12.238;2023-07-16T03:56:39;28.30;92.90
38788;DHT22;24536;45.488;12.238;2023-07-16T03:59:05;28.20;92.80
38788;DHT22;24536;45.488;12.238;2023-07-16T04:01:30;28.20;93.00
38788;DHT22;24536;45.488;12.238;2023-07-16T04:03:56;28.10;92.70
38788;DHT22;24536;45.488;12.238;2023-07-16T04:06:21;28.00;92.50
38788;DHT22;24536;45.488;12.238;2023-07-16T04:08:47;27.90;92.40
38788;DHT22;24536;45.488;12.238;2023-07-16T04:11:13;27.80;92.30
38788;DHT22;24536;45.488;12.238;2023-07-16T04:13:39;27.80;92.30
38788;DHT22;24536;45.488;12.238;2023-07-16T04:16:04;27.70;92.40
38788;DHT22;24536;45.488;12.238;2023-07-16T04:18:30;27.70;92.30
38788;DHT22;24536;45.488;12.238;2023-07-16T04:20:55;27.70;92.30
38788;DHT22;24536;45.488;12.238;2023-07-16T04:23:22;27.70;92.50
38788;DHT22;24536;45.488;12.238;2023-07-16T04:25:52;27.70;92.20
38788;DHT22;24536;45.488;12.238;2023-07-16T04:28:18;27.80;92.30
38788;DHT22;24536;45.488;12.238;2023-07-16T04:30:44;27.70;92.40
38788;DHT22;24536;45.488;12.238;2023-07-16T04:33:09;27.70;92.50
38788;DHT22;24536;45.488;12.238;2023-07-16T04:35:35;27.70;92.50
38788;DHT22;24536;45.488;12.238;2023-07-16T04:38:01;27.70;92.60
38788;DHT22;24536;45.488;12.238;2023-07-16T04:40:30;27.70;92.70
38788;DHT22;24536;45.488;12.238;2023-07-16T04:42:56;27.70;92.70
38788;DHT22;24536;45.488;12.238;2023-07-16T04:45:22;27.70;92.80
38788;DHT22;24536;45.488;12.238;2023-07-16T04:47:48;27.70;92.90
38788;DHT22;24536;45.488;12.238;2023-07-16T04:50:13;27.70;93.00
38788;DHT22;24536;45.488;12.238;2023-07-16T04:52:39;27.70;93.00
38788;DHT22;24536;45.488;12.238;2023-07-16T04:55:05;27.70;93.00
38788;DHT22;24536;45.488;12.238;2023-07-16T04:57:39;27.70;93.10
38788;DHT22;24536;45.488;12.238;2023-07-16T05:00:05;27.80;93.10
38788;DHT22;24536;45.488;12.238;2023-07-16T05:02:34;27.80;93.20
38788;DHT22;24536;45.488;12.238;2023-07-16T05:05:07;27.80;93.20
38788;DHT22;24536;45.488;12.238;2023-07-16T05:07:35;27.80;93.20
38788;DHT22;24536;45.488;12.238;2023-07-16T05:10:01;27.80;93.10
38788;DHT22;24536;45.488;12.238;2023-07-16T05:12:27;27.80;93.10
38788;DHT22;24536;45.488;12.238;2023-07-16T05:14:53;27.70;93.10
38788;DHT22;24536;45.488;12.238;2023-07-16T05:17:22;27.70;93.10
38788;DHT22;24536;45.488;12.238;2023-07-16T05:19:48;27.70;93.10
38788;DHT22;24536;45.488;12.238;2023-07-16T05:22:14;27.70;93.10
38788;DHT22;24536;45.488;12.238;2023-07-16T05:24:40;27.70;93.10
38788;DHT22;24536;45.488;12.238;2023-07-16T05:27:06;27.80;93.20
38788;DHT22;24536;45.488;12.238;2023-07-16T05:29:32;27.80;93.00
38788;DHT22;24536;45.488;12.238;2023-07-16T05:31:59;27.90;93.10
38788;DHT22;24536;45.488;12.238;2023-07-16T05:34:24;27.90;93.00
38788;DHT22;24536;45.488;12.238;2023-07-16T05:36:53;28.00;93.00
38788;DHT22;24536;45.488;12.238;2023-07-16T05:39:22;28.10;93.00
38788;DHT22;24536;45.488;12.238;2023-07-16T05:41:48;28.10;92.80
38788;DHT22;24536;45.488;12.238;2023-07-16T05:44:14;28.10;92.90
38788;DHT22;24536;45.488;12.238;2023-07-16T05:46:41;28.10;92.90
38788;DHT22;24536;45.488;12.238;2023-07-16T05:49:10;28.10;92.90
38788;DHT22;24536;45.488;12.238;2023-07-16T05:51:52;28.10;92.90
38788;DHT22;24536;45.488;12.238;2023-07-16T05:54:19;28.10;92.90
38788;DHT22;24536;45.488;12.238;2023-07-16T05:56:45;28.10;93.00
38788;DHT22;24536;45.488;12.238;2023-07-16T05:59:11;28.10;93.00
38788;DHT22;24536;45.488;12.238;2023-07-16T06:01:36;28.20;93.10
38788;DHT22;24536;45.488;12.238;2023-07-16T06:04:02;28.20;93.10
38788;DHT22;24536;45.488;12.238;2023-07-16T06:06:28;28.20;93.20
38788;DHT22;24536;45.488;12.238;2023-07-16T06:08:54;28.20;93.20
38788;DHT22;24536;45.488;12.238;2023-07-16T06:11:20;28.30;93.20
38788;DHT22;24536;45.488;12.238;2023-07-16T06:13:46;28.30;93.30
38788;DHT22;24536;45.488;12.238;2023-07-16T06:16:11;28.30;93.30
38788;DHT22;24536;45.488;12.238;2023-07-16T06:18:37;28.30;93.40
38788;DHT22;24536;45.488;12.238;2023-07-16T06:21:03;28.40;93.50
38788;DHT22;24536;45.488;12.238;2023-07-16T06:23:28;28.40;93.60
38788;DHT22;24536;45.488;12.238;2023-07-16T06:25:55;28.40;93.60
38788;DHT22;24536;45.488;12.238;2023-07-16T06:28:21;28.50;93.70
38788;DHT22;24536;45.488;12.238;2023-07-16T06:30:47;28.50;93.70
38788;DHT22;24536;45.488;12.238;2023-07-16T06:33:13;28.60;93.80
38788;DHT22;24536;45.488;12.238;2023-07-16T06:35:39;28.70;93.90
38788;DHT22;24536;45.488;12.238;2023-07-16T06:38:04;28.70;93.90
38788;DHT22;24536;45.488;12.238;2023-07-16T06:40:30;28.70;93.90
38788;DHT22;24536;45.488;12.238;2023-07-16T06:42:56;28.80;94.10
38788;DHT22;24536;45.488;12.238;2023-07-16T06:45:22;28.80;94.00
38788;DHT22;24536;45.488;12.238;2023-07-16T06:47:48;28.90;94.20
38788;DHT22;24536;45.488;12.238;2023-07-16T06:50:14;29.00;94.10
38788;DHT22;24536;45.488;12.238;2023-07-16T06:52:40;29.00;94.00
38788;DHT22;24536;45.488;12.238;2023-07-16T06:55:06;29.00;94.10
38788;DHT22;24536;45.488;12.238;2023-07-16T06:57:31;29.10;94.00
38788;DHT22;24536;45.488;12.238;2023-07-16T06:59:57;29.10;93.90
38788;DHT22;24536;45.488;12.238;2023-07-16T07:02:23;29.20;93.90
38788;DHT22;24536;45.488;12.238;2023-07-16T07:04:49;29.20;93.90
38788;DHT22;24536;45.488;12.238;2023-07-16T07:07:15;29.30;93.80
38788;DHT22;24536;45.488;12.238;2023-07-16T07:09:41;29.40;93.70
38788;DHT22;24536;45.488;12.238;2023-07-16T07:12:07;29.40;93.50
38788;DHT22;24536;45.488;12.238;2023-07-16T07:14:33;29.50;93.40
38788;DHT22;24536;45.488;12.238;2023-07-16T07:16:59;29.50;93.20
38788;DHT22;24536;45.488;12.238;2023-07-16T07:19:25;29.50;93.10
38788;DHT22;24536;45.488;12.238;2023-07-16T07:21:50;29.60;93.00
38788;DHT22;24536;45.488;12.238;2023-07-16T07:24:19;29.60;93.00
38788;DHT22;24536;45.488;12.238;2023-07-16T07:26:44;29.60;92.90
38788;DHT22;24536;45.488;12.238;2023-07-16T07:29:10;29.60;92.70
38788;DHT22;24536;45.488;12.238;2023-07-16T07:31:36;29.60;92.50
38788;DHT22;24536;45.488;12.238;2023-07-16T07:34:01;29.60;92.50
38788;DHT22;24536;45.488;12.238;2023-07-16T07:36:28;29.60;92.70
38788;DHT22;24536;45.488;12.238;2023-07-16T07:38:54;29.70;92.60
38788;DHT22;24536;45.488;12.238;2023-07-16T07:41:20;29.70;92.50
38788;DHT22;24536;45.488;12.238;2023-07-16T07:43:45;29.70;92.60
38788;DHT22;24536;45.488;12.238;2023-07-16T07:46:11;29.80;92.00
38788;DHT22;24536;45.488;12.238;2023-07-16T07:48:37;29.80;92.20
38788;DHT22;24536;45.488;12.238;2023-07-16T07:51:03;29.80;92.10
38788;DHT22;24536;45.488;12.238;2023-07-16T07:53:32;29.90;92.20
38788;DHT22;24536;45.488;12.238;2023-07-16T07:55:57;29.90;92.20
38788;DHT22;24536;45.488;12.238;2023-07-16T07:58:23;30.00;92.00
38788;DHT22;24536;45.488;12.238;2023-07-16T08:00:49;30.00;91.90
38788;DHT22;24536;45.488;12.238;2023-07-16T08:03:28;30.10;91.90
38788;DHT22;24536;45.488;12.238;2023-07-16T08:05:58;30.20;91.90
38788;DHT22;24536;45.488;12.238;2023-07-16T08:08:24;30.30;91.80
38788;DHT22;24536;45.488;12.238;2023-07-16T08:10:50;30.30;91.60
38788;DHT22;24536;45.488;12.238;2023-07-16T08:13:16;30.40;91.50
38788;DHT22;24536;45.488;12.238;2023-07-16T08:15:41;30.40;91.50
38788;DHT22;24536;45.488;12.238;2023-07-16T08:18:07;30.50;91.60
38788;DHT22;24536;45.488;12.238;2023-07-16T08:20:33;30.50;91.60
38788;DHT22;24536;45.488;12.238;2023-07-16T08:22:58;30.60;91.50
38788;DHT22;24536;45.488;12.238;2023-07-16T08:25:24;30.70;91.50
38788;DHT22;24536;45.488;12.238;2023-07-16T08:27:51;30.70;91.50
38788;DHT22;24536;45.488;12.238;2023-07-16T08:30:16;30.80;91.40
38788;DHT22;24536;45.488;12.238;2023-07-16T08:32:42;30.90;91.30
38788;DHT22;24536;45.488;12.238;2023-07-16T08:35:08;30.90;91.10
38788;DHT22;24536;45.488;12.238;2023-07-16T08:37:41;31.00;90.90
38788;DHT22;24536;45.488;12.238;2023-07-16T08:40:07;31.00;90.80
38788;DHT22;24536;45.488;12.238;2023-07-16T08:42:37;31.00;90.50
38788;DHT22;24536;45.488;12.238;2023-07-16T08:45:09;31.00;90.60
38788;DHT22;24536;45.488;12.238;2023-07-16T08:47:35;31.10;90.60
38788;DHT22;24536;45.488;12.238;2023-07-16T08:50:02;31.10;90.30
38788;DHT22;24536;45.488;12.238;2023-07-16T08:52:28;31.20;90.40
38788;DHT22;24536;45.488;12.238;2023-07-16T08:54:55;31.20;90.50
38788;DHT22;24536;45.488;12.238;2023-07-16T08:57:21;31.30;90.30
38788;DHT22;24536;45.488;12.238;2023-07-16T08:59:51;31.40;90.20
38788;DHT22;24536;45.488;12.238;2023-07-16T09:02:20;31.40;90.30
38788;DHT22;24536;45.488;12.238;2023-07-16T09:04:49;31.50;90.20
38788;DHT22;24536;45.488;12.238;2023-07-16T09:07:17;31.60;90.10
38788;DHT22;24536;45.488;12.238;2023-07-16T09:09:43;31.60;89.70
38788;DHT22;24536;45.488;12.238;2023-07-16T09:12:12;31.70;89.20
38788;DHT22;24536;45.488;12.238;2023-07-16T09:14:40;31.80;89.40
38788;DHT22;24536;45.488;12.238;2023-07-16T09:17:20;31.90;89.20
38788;DHT22;24536;45.488;12.238;2023-07-16T09:20:02;32.00;88.80
38788;DHT22;24536;45.488;12.238;2023-07-16T09:22:29;32.00;88.20
38788;DHT22;24536;45.488;12.238;2023-07-16T09:25:31;32.00;88.10
38788;DHT22;24536;45.488;12.238;2023-07-16T09:28:08;32.10;88.50
38788;DHT22;24536;45.488;12.238;2023-07-16T09:34:01;32.20;87.40
38788;DHT22;24536;45.488;12.238;2023-07-16T09:36:28;32.30;87.50
38788;DHT22;24536;45.488;12.238;2023-07-16T09:38:54;32.40;87.30
38788;DHT22;24536;45.488;12.238;2023-07-16T09:41:21;32.40;87.00
38788;DHT22;24536;45.488;12.238;2023-07-16T09:43:47;32.50;86.60
38788;DHT22;24536;45.488;12.238;2023-07-16T09:46:13;32.60;86.30
38788;DHT22;24536;45.488;12.238;2023-07-16T09:48:39;32.60;86.00
38788;DHT22;24536;45.488;12.238;2023-07-16T09:51:07;32.70;85.80
38788;DHT22;24536;45.488;12.238;2023-07-16T09:53:40;32.70;85.00
38788;DHT22;24536;45.488;12.238;2023-07-16T09:56:10;32.80;84.80
38788;DHT22;24536;45.488;12.238;2023-07-16T09:58:38;32.90;84.50
38788;DHT22;24536;45.488;12.238;2023-07-16T10:01:04;33.00;84.00
38788;DHT22;24536;45.488;12.238;2023-07-16T10:03:30;33.00;83.60
38788;DHT22;24536;45.488;12.238;2023-07-16T10:06:06;33.10;83.50
38788;DHT22;24536;45.488;12.238;2023-07-16T10:08:34;33.20;82.60
38788;DHT22;24536;45.488;12.238;2023-07-16T10:11:00;33.30;82.30
38788;DHT22;24536;45.488;12.238;2023-07-16T10:13:26;33.40;82.10
38788;DHT22;24536;45.488;12.238;2023-07-16T10:15:57;33.50;82.70
38788;DHT22;24536;45.488;12.238;2023-07-16T10:18:27;33.60;81.90
38788;DHT22;24536;45.488;12.238;2023-07-16T10:20:53;33.70;81.30
38788;DHT22;24536;45.488;12.238;2023-07-16T10:23:19;33.80;81.00
38788;DHT22;24536;45.488;12.238;2023-07-16T10:26:01;33.80;80.80
38788;DHT22;24536;45.488;12.238;2023-07-16T10:28:33;34.00;80.20
38788;DHT22;24536;45.488;12.238;2023-07-16T10:31:00;34.00;80.10
38788;DHT22;24536;45.488;12.238;2023-07-16T10:33:25;34.10;79.90
38788;DHT22;24536;45.488;12.238;2023-07-16T10:35:51;34.20;79.80
38788;DHT22;24536;45.488;12.238;2023-07-16T10:38:17;34.30;79.40
38788;DHT22;24536;45.488;12.238;2023-07-16T10:40:44;34.30;79.10
38788;DHT22;24536;45.488;12.238;2023-07-16T10:43:10;34.40;78.80
38788;DHT22;24536;45.488;12.238;2023-07-16T10:45:36;34.50;79.10
38788;DHT22;24536;45.488;12.238;2023-07-16T10:48:02;34.70;79.00
38788;DHT22;24536;45.488;12.238;2023-07-16T10:50:28;34.90;78.50
38788;DHT22;24536;45.488;12.238;2023-07-16T10:52:55;35.00;78.00
38788;DHT22;24536;45.488;12.238;2023-07-16T10:55:21;35.10;77.70
38788;DHT22;24536;45.488;12.238;2023-07-16T10:57:48;35.30;77.40
38788;DHT22;24536;45.488;12.238;2023-07-16T11:00:15;35.40;77.20
38788;DHT22;24536;45.488;12.238;2023-07-16T11:02:43;35.60;76.50
38788;DHT22;24536;45.488;12.238;2023-07-16T11:05:16;35.70;76.00
38788;DHT22;24536;45.488;12.238;2023-07-16T11:07:47;35.80;75.10
38788;DHT22;24536;45.488;12.238;2023-07-16T11:10:15;35.90;74.60
38788;DHT22;24536;45.488;12.238;2023-07-16T11:12:42;36.00;74.30
38788;DHT22;24536;45.488;12.238;2023-07-16T11:15:08;36.10;74.10
38788;DHT22;24536;45.488;12.238;2023-07-16T11:17:36;36.20;74.00
38788;DHT22;24536;45.488;12.238;2023-07-16T11:20:02;36.30;73.10
38788;DHT22;24536;45.488;12.238;2023-07-16T11:22:29;36.40;73.30
38788;DHT22;24536;45.488;12.238;2023-07-16T11:25:01;36.60;73.60
38788;DHT22;24536;45.488;12.238;2023-07-16T11:27:29;36.70;72.80
38788;DHT22;24536;45.488;12.238;2023-07-16T11:29:59;36.80;72.20
38788;DHT22;24536;45.488;12.238;2023-07-16T11:35:02;37.10;70.90
38788;DHT22;24536;45.488;12.238;2023-07-16T11:37:29;37.30;71.10
38788;DHT22;24536;45.488;12.238;2023-07-16T11:39:56;37.50;70.40
38788;DHT22;24536;45.488;12.238;2023-07-16T11:42:45;37.90;70.60
38788;DHT22;24536;45.488;12.238;2023-07-16T11:45:23;38.30;70.60
38788;DHT22;24536;45.488;12.238;2023-07-16T11:47:52;38.80;69.20
38788;DHT22;24536;45.488;12.238;2023-07-16T11:50:17;39.10;68.60
38788;DHT22;24536;45.488;12.238;2023-07-16T11:52:55;39.30;67.70
38788;DHT22;24536;45.488;12.238;2023-07-16T11:55:21;39.40;67.20
38788;DHT22;24536;45.488;12.238;2023-07-16T11:57:47;39.70;67.60
38788;DHT22;24536;45.488;12.238;2023-07-16T12:00:13;39.80;67.00
38788;DHT22;24536;45.488;12.238;2023-07-16T12:02:39;40.00;66.80
38788;DHT22;24536;45.488;12.238;2023-07-16T12:05:05;40.10;66.40
38788;DHT22;24536;45.488;12.238;2023-07-16T12:07:42;40.20;66.40
38788;DHT22;24536;45.488;12.238;2023-07-16T12:10:08;40.30;65.90
38788;DHT22;24536;45.488;12.238;2023-07-16T12:12:34;40.40;65.80
38788;DHT22;24536;45.488;12.238;2023-07-16T12:15:05;40.40;65.20
38788;DHT22;24536;45.488;12.238;2023-07-16T12:17:33;40.40;65.20
38788;DHT22;24536;45.488;12.238;2023-07-16T12:20:00;40.60;65.20
38788;DHT22;24536;45.488;12.238;2023-07-16T12:22:27;40.70;64.40
38788;DHT22;24536;45.488;12.238;2023-07-16T12:24:53;40.80;63.80
38788;DHT22;24536;45.488;12.238;2023-07-16T12:27:20;40.90;64.00
38788;DHT22;24536;45.488;12.238;2023-07-16T12:29:46;41.00;64.00
38788;DHT22;24536;45.488;12.238;2023-07-16T12:32:13;41.00;63.20
38788;DHT22;24536;45.488;12.238;2023-07-16T12:34:40;41.20;62.80
38788;DHT22;24536;45.488;12.238;2023-07-16T12:37:05;41.20;61.80
38788;DHT22;24536;45.488;12.238;2023-07-16T12:39:32;41.40;62.00
38788;DHT22;24536;45.488;12.238;2023-07-16T12:41:58;41.40;61.80
38788;DHT22;24536;45.488;12.238;2023-07-16T12:44:26;41.50;61.80
38788;DHT22;24536;45.488;12.238;2023-07-16T12:46:52;41.60;61.30
38788;DHT22;24536;45.488;12.238;2023-07-16T12:49:19;41.70;60.90
38788;DHT22;24536;45.488;12.238;2023-07-16T12:51:45;41.70;60.70
38788;DHT22;24536;45.488;12.238;2023-07-16T12:54:11;41.80;60.30
38788;DHT22;24536;45.488;12.238;2023-07-16T12:56:36;41.90;60.40
38788;DHT22;24536;45.488;12.238;2023-07-16T12:59:02;41.90;60.00
38788;DHT22;24536;45.488;12.238;2023-07-16T13:01:29;41.80;60.10
38788;DHT22;24536;45.488;12.238;2023-07-16T13:04:00;41.70;60.30
38788;DHT22;24536;45.488;12.238;2023-07-16T13:06:26;41.60;60.30
38788;DHT22;24536;45.488;12.238;2023-07-16T13:08:52;41.60;59.70
38788;DHT22;24536;45.488;12.238;2023-07-16T13:11:17;41.50;60.00
38788;DHT22;24536;45.488;12.238;2023-07-16T13:13:43;41.50;59.30
38788;DHT22;24536;45.488;12.238;2023-07-16T13:16:09;41.50;58.80
38788;DHT22;24536;45.488;12.238;2023-07-16T13:18:35;41.40;59.00
38788;DHT22;24536;45.488;12.238;2023-07-16T13:21:00;41.30;57.60
38788;DHT22;24536;45.488;12.238;2023-07-16T13:23:26;41.20;56.70
38788;DHT22;24536;45.488;12.238;2023-07-16T13:25:52;41.30;56.80
38788;DHT22;24536;45.488;12.238;2023-07-16T13:28:18;41.30;56.20
38788;DHT22;24536;45.488;12.238;2023-07-16T13:30:44;41.30;56.00
38788;DHT22;24536;45.488;12.238;2023-07-16T13:33:09;41.30;56.10
38788;DHT22;24536;45.488;12.238;2023-07-16T13:35:35;41.20;54.50
38788;DHT22;24536;45.488;12.238;2023-07-16T13:38:01;41.20;54.60
38788;DHT22;24536;45.488;12.238;2023-07-16T13:40:27;41.10;53.50
38788;DHT22;24536;45.488;12.238;2023-07-16T13:42:53;41.00;53.40
38788;DHT22;24536;45.488;12.238;2023-07-16T13:45:19;41.00;53.50
38788;DHT22;24536;45.488;12.238;2023-07-16T13:47:45;40.90;53.30
38788;DHT22;24536;45.488;12.238;2023-07-16T13:50:11;40.80;53.50
38788;DHT22;24536;45.488;12.238;2023-07-16T13:52:36;40.80;54.00
38788;DHT22;24536;45.488;12.238;2023-07-16T13:55:03;40.80;54.60
38788;DHT22;24536;45.488;12.238;2023-07-16T13:57:29;40.70;54.70
38788;DHT22;24536;45.488;12.238;2023-07-16T13:59:55;40.70;54.80
38788;DHT22;24536;45.488;12.238;2023-07-16T14:02:21;40.60;54.60
38788;DHT22;24536;45.488;12.238;2023-07-16T14:04:47;40.50;55.10
38788;DHT22;24536;45.488;12.238;2023-07-16T14:07:13;40.50;55.90
38788;DHT22;24536;45.488;12.238;2023-07-16T14:09:39;40.40;55.80
38788;DHT22;24536;45.488;12.238;2023-07-16T14:12:05;40.30;55.60
38788;DHT22;24536;45.488;12.238;2023-07-16T14:14:30;40.20;55.80
38788;DHT22;24536;45.488;12.238;2023-07-16T14:16:56;40.10;56.00
38788;DHT22;24536;45.488;12.238;2023-07-16T14:19:22;40.00;56.70
38788;DHT22;24536;45.488;12.238;2023-07-16T14:21:47;39.90;57.20
38788;DHT22;24536;45.488;12.238;2023-07-16T14:24:13;39.90;57.70
38788;DHT22;24536;45.488;12.238;2023-07-16T14:26:39;39.90;58.10
38788;DHT22;24536;45.488;12.238;2023-07-16T14:29:05;39.70;58.30
38788;DHT22;24536;45.488;12.238;2023-07-16T14:31:31;39.70;58.50
38788;DHT22;24536;45.488;12.238;2023-07-16T14:33:56;39.50;57.80
38788;DHT22;24536;45.488;12.238;2023-07-16T14:36:23;39.50;58.10
38788;DHT22;24536;45.488;12.238;2023-07-16T14:38:49;39.30;58.20
38788;DHT22;24536;45.488;12.238;2023-07-16T14:41:15;39.20;58.50
38788;DHT22;24536;45.488;12.238;2023-07-16T14:43:41;39.10;58.80
38788;DHT22;24536;45.488;12.238;2023-07-16T14:46:07;38.90;59.20
38788;DHT22;24536;45.488;12.238;2023-07-16T14:48:36;38.80;59.50
38788;DHT22;24536;45.488;12.238;2023-07-16T14:51:02;38.70;59.90
38788;DHT22;24536;45.488;12.238;2023-07-16T14:53:28;38.60;60.40
38788;DHT22;24536;45.488;12.238;2023-07-16T14:55:54;38.40;60.90
38788;DHT22;24536;45.488;12.238;2023-07-16T14:58:20;38.30;62.00
38788;DHT22;24536;45.488;12.238;2023-07-16T15:00:49;38.10;62.40
38788;DHT22;24536;45.488;12.238;2023-07-16T15:03:15;38.00;62.50
38788;DHT22;24536;45.488;12.238;2023-07-16T15:05:41;37.80;62.60
38788;DHT22;24536;45.488;12.238;2023-07-16T15:08:07;37.70;62.90
38788;DHT22;24536;45.488;12.238;2023-07-16T15:10:32;37.60;63.30
38788;DHT22;24536;45.488;12.238;2023-07-16T15:12:58;37.40;63.40
38788;DHT22;24536;45.488;12.238;2023-07-16T15:15:24;37.30;63.70
38788;DHT22;24536;45.488;12.238;2023-07-16T15:17:50;37.20;64.00
38788;DHT22;24536;45.488;12.238;2023-07-16T15:20:16;37.10;64.30
38788;DHT22;24536;45.488;12.238;2023-07-16T15:22:43;37.00;64.30
38788;DHT22;24536;45.488;12.238;2023-07-16T15:25:09;36.90;64.70
38788;DHT22;24536;45.488;12.238;2023-07-16T15:27:38;36.80;65.20
38788;DHT22;24536;45.488;12.238;2023-07-16T15:30:05;36.60;65.20